createdAt,value
2022-09-23T00:01:08.573Z,73.34
2022-09-23T00:03:38.171Z,73.57
2022-09-23T00:06:07.763Z,74.62
2022-09-23T00:08:35.129Z,74.46
2022-09-23T00:11:22.961Z,74.17
2022-09-23T00:13:52.443Z,74.37
2022-09-23T00:16:22.875Z,74.68
2022-09-23T00:18:50.582Z,74.75
2022-09-23T00:21:18.933Z,75.40
2022-09-23T00:23:45.456Z,74.84
2022-09-23T00:26:14.001Z,74.91
2022-09-23T00:28:40.654Z,75.51
2022-09-23T00:31:12.410Z,75.05
2022-09-23T00:33:40.496Z,75.48
2022-09-23T00:36:11.008Z,76.10
2022-09-23T00:38:38.793Z,76.11
2022-09-23T00:41:05.634Z,76.26
2022-09-23T00:43:39.726Z,76.24
2022-09-23T00:46:09.058Z,76.55
2022-09-23T00:48:39.126Z,76.74
2022-09-23T00:51:09.577Z,76.74
2022-09-23T00:53:36.209Z,76.32
2022-09-23T00:56:07.247Z,76.38
2022-09-23T00:58:37.216Z,77.31
2022-09-23T01:01:04.500Z,76.92
2022-09-23T01:03:31.243Z,77.70
2022-09-23T01:05:58.876Z,77.11
2022-09-23T01:08:27.012Z,77.22
2022-09-23T01:11:27.958Z,78.42
2022-09-23T01:14:13.251Z,77.63
2022-09-23T01:16:58.338Z,77.54
2022-09-23T01:19:46.649Z,78.03
2022-09-23T01:22:35.637Z,77.70
2022-09-23T01:25:05.022Z,77.85
2022-09-23T01:27:56.687Z,78.33
2022-09-23T01:30:45.930Z,77.86
2022-09-23T01:33:37.246Z,78.71
2022-09-23T01:36:10.554Z,77.76
2022-09-23T01:38:44.719Z,78.46
2022-09-23T01:41:30.052Z,78.73
2022-09-23T01:44:05.680Z,78.61
2022-09-23T01:46:47.800Z,78.83
2022-09-23T01:49:25.924Z,78.81
2022-09-23T01:52:05.821Z,78.30
2022-09-23T01:54:57.781Z,78.12
2022-09-23T01:57:40.175Z,79.37
2022-09-23T02:00:14.179Z,78.88
2022-09-23T02:02:49.789Z,78.38
2022-09-23T02:05:30.201Z,78.30
2022-09-23T02:08:15.772Z,78.56
2022-09-23T02:11:00.552Z,78.75
2022-09-23T02:13:48.639Z,78.26
2022-09-23T02:16:25.471Z,78.92
2022-09-23T02:18:57.742Z,78.61
2022-09-23T02:21:30.030Z,78.69
2022-09-23T02:24:15.077Z,78.85
2022-09-23T02:26:54.167Z,79.11
2022-09-23T02:29:26.933Z,79.51
2022-09-23T02:31:56.532Z,78.81
2022-09-23T02:34:44.774Z,79.33
2022-09-23T02:37:27.883Z,79.71
2022-09-23T02:40:06.250Z,79.39
2022-09-23T02:43:10.556Z,79.52
2022-09-23T02:45:38.963Z,79.22
2022-09-23T02:48:33.224Z,79.73
2022-09-23T02:51:02.294Z,78.88
2022-09-23T02:53:30.347Z,78.88
2022-09-23T02:55:56.808Z,79.03
2022-09-23T02:58:23.517Z,79.38
2022-09-23T03:01:08.443Z,79.87
2022-09-23T03:03:49.378Z,79.45
2022-09-23T03:06:30.499Z,79.11
2022-09-23T03:09:24.941Z,79.57
2022-09-23T03:12:02.916Z,79.78
2022-09-23T03:14:41.042Z,79.05
2022-09-23T03:17:20.638Z,79.11
2022-09-23T03:19:58.224Z,79.67
2022-09-23T03:22:31.149Z,80.14
2022-09-23T03:25:07.195Z,79.70
2022-09-23T03:27:35.929Z,79.74
2022-09-23T03:30:04.655Z,79.68
2022-09-23T03:32:34.240Z,79.11
2022-09-23T03:35:05.782Z,80.27
2022-09-23T03:37:53.305Z,79.22
2022-09-23T03:40:33.085Z,79.36
2022-09-23T03:43:01.506Z,79.96
2022-09-23T03:45:33.100Z,79.35
2022-09-23T03:48:00.644Z,79.23
2022-09-23T03:50:27.818Z,79.65
2022-09-23T03:52:54.298Z,79.67
2022-09-23T03:55:21.237Z,79.73
2022-09-23T03:57:47.963Z,80.09
2022-09-23T04:00:15.093Z,80.27
2022-09-23T04:02:42.153Z,80.75
2022-09-23T04:05:10.082Z,79.70
2022-09-23T04:07:36.530Z,79.69
2022-09-23T04:10:04.892Z,80.20
2022-09-23T04:12:31.353Z,80.05
2022-09-23T04:14:58.965Z,79.87
2022-09-23T04:17:25.430Z,80.40
2022-09-23T04:19:51.845Z,80.37
2022-09-23T04:22:18.372Z,80.72
2022-09-23T04:24:44.851Z,79.93
2022-09-23T04:27:11.305Z,80.21
2022-09-23T04:29:37.810Z,79.93
2022-09-23T04:32:04.389Z,80.30
2022-09-23T04:34:30.810Z,80.58
2022-09-23T04:36:57.286Z,79.71
2022-09-23T04:39:23.716Z,80.40
2022-09-23T04:41:50.169Z,81.13
2022-09-23T04:44:17.264Z,80.59
2022-09-23T04:46:48.211Z,80.49
2022-09-23T04:49:15.726Z,80.54
2022-09-23T04:51:43.467Z,80.89
2022-09-23T04:54:11.865Z,81.02
2022-09-23T04:56:39.700Z,80.74
2022-09-23T04:59:06.957Z,80.92
2022-09-23T05:01:35.052Z,81.23
2022-09-23T05:04:08.431Z,80.65
2022-09-23T05:06:35.769Z,80.95
2022-09-23T05:09:04.421Z,81.43
2022-09-23T05:11:31.633Z,81.55
2022-09-23T05:13:58.618Z,81.21
2022-09-23T05:16:25.618Z,81.42
2022-09-23T05:18:53.070Z,81.63
2022-09-23T05:21:22.443Z,82.40
2022-09-23T05:23:54.231Z,81.79
2022-09-23T05:26:22.521Z,81.53
2022-09-23T05:28:49.025Z,81.86
2022-09-23T05:31:20.253Z,82.19
2022-09-23T05:33:51.654Z,82.49
2022-09-23T05:36:18.767Z,82.35
2022-09-23T05:38:45.439Z,81.83
2022-09-23T05:41:13.626Z,81.87
2022-09-23T05:43:41.220Z,82.72
2022-09-23T05:46:11.403Z,82.44
2022-09-23T05:48:39.303Z,82.87
2022-09-23T05:51:11.153Z,82.66
2022-09-23T05:53:39.952Z,83.10
2022-09-23T05:56:09.695Z,82.43
2022-09-23T05:58:36.349Z,82.64
2022-09-23T06:01:12.266Z,82.83
2022-09-23T06:03:39.433Z,82.49
2022-09-23T06:06:06.580Z,82.83
2022-09-23T06:08:37.204Z,82.92
2022-09-23T06:11:09.721Z,83.29
2022-09-23T06:13:47.380Z,82.98
2022-09-23T06:16:18.720Z,83.14
2022-09-23T06:18:46.052Z,82.88
2022-09-23T06:21:17.096Z,82.81
2022-09-23T06:23:47.015Z,83.62
2022-09-23T06:26:49.716Z,83.00
2022-09-23T06:30:11.888Z,83.02
2022-09-23T06:39:37.896Z,83.04
2022-09-23T06:42:06.837Z,83.21
2022-09-23T06:44:35.965Z,82.73
2022-09-23T06:47:09.568Z,83.22
2022-09-23T06:49:57.720Z,82.97
2022-09-23T06:52:27.781Z,82.32
2022-09-23T06:54:57.133Z,83.06
2022-09-23T06:57:25.992Z,82.93
2022-09-23T06:59:52.701Z,83.40
2022-09-23T07:02:23.878Z,83.14
2022-09-23T07:04:51.536Z,83.26
2022-09-23T07:07:33.393Z,83.57
2022-09-23T07:12:56.250Z,82.84
2022-09-23T07:15:29.244Z,82.63
2022-09-23T07:18:00.011Z,83.06
2022-09-23T07:20:26.631Z,83.76
2022-09-23T07:23:06.602Z,83.88
2022-09-23T07:29:05.236Z,83.66
2022-09-23T07:37:48.502Z,83.61
2022-09-23T07:44:57.859Z,83.81
2022-09-23T07:47:31.527Z,83.17
2022-09-23T07:49:58.393Z,83.58
2022-09-23T07:52:25.144Z,83.28
2022-09-23T07:54:54.308Z,83.20
2022-09-23T07:57:20.815Z,83.83
2022-09-23T07:59:50.370Z,83.38
2022-09-23T08:02:17.020Z,83.45
2022-09-23T08:04:44.234Z,83.37
2022-09-23T08:07:13.009Z,83.42
2022-09-23T08:09:52.565Z,83.62
2022-09-23T08:12:22.275Z,83.17
2022-09-23T08:14:48.760Z,83.55
2022-09-23T08:17:15.293Z,82.82
2022-09-23T08:19:45.510Z,83.12
2022-09-23T08:22:12.373Z,82.64
2022-09-23T08:24:41.155Z,83.13
2022-09-23T08:27:07.800Z,82.44
2022-09-23T08:29:37.078Z,82.96
2022-09-23T08:32:22.042Z,82.11
2022-09-23T08:34:51.746Z,81.73
2022-09-23T08:37:18.238Z,82.19
2022-09-23T08:39:45.318Z,82.60
2022-09-23T08:42:24.181Z,82.26
2022-09-23T08:44:57.582Z,82.39
2022-09-23T08:47:53.498Z,83.10
2022-09-23T08:50:46.464Z,82.18
2022-09-23T08:53:36.358Z,81.82
2022-09-23T08:56:14.264Z,81.57
2022-09-23T08:58:55.579Z,81.94
2022-09-23T09:01:45.595Z,81.57
2022-09-23T09:04:39.950Z,82.06
2022-09-23T09:10:06.591Z,81.65
2022-09-23T09:12:51.445Z,81.75
2022-09-23T09:15:26.613Z,80.89
2022-09-23T09:18:07.915Z,81.53
2022-09-23T09:20:57.634Z,81.57
2022-09-23T09:23:40.675Z,81.50
2022-09-23T09:26:23.287Z,81.14
2022-09-23T09:29:23.846Z,80.90
2022-09-23T09:31:57.817Z,81.26
2022-09-23T09:34:24.390Z,81.09
2022-09-23T09:37:13.698Z,81.01
2022-09-23T09:39:40.975Z,80.71
2022-09-23T09:42:19.084Z,80.58
2022-09-23T09:44:59.383Z,80.28
2022-09-23T09:47:47.736Z,80.89
2022-09-23T09:50:22.109Z,80.13
2022-09-23T09:52:49.381Z,80.40
2022-09-23T09:55:29.535Z,80.17
2022-09-23T09:58:04.028Z,80.95
2022-09-23T10:00:30.639Z,80.00
2022-09-23T10:03:15.388Z,80.68
2022-09-23T10:05:45.155Z,80.67
2022-09-23T10:08:35.208Z,80.46
2022-09-23T10:11:05.471Z,79.79
2022-09-23T10:13:32.209Z,79.46
2022-09-23T10:16:02.296Z,79.33
2022-09-23T10:18:49.296Z,78.96
2022-09-23T10:21:23.110Z,78.40
2022-09-23T10:24:01.625Z,78.06
2022-09-23T10:26:38.884Z,77.81
2022-09-23T10:29:22.413Z,76.64
2022-09-23T10:32:20.605Z,77.79
2022-09-23T10:34:52.364Z,77.63
2022-09-23T10:37:31.140Z,76.86
2022-09-23T10:40:17.133Z,76.53
2022-09-23T10:43:36.400Z,77.27
2022-09-23T10:46:25.564Z,76.55
2022-09-23T10:49:26.802Z,75.75
2022-09-23T10:52:16.333Z,76.48
2022-09-23T10:55:21.811Z,75.66
2022-09-23T10:58:04.352Z,74.92
2022-09-23T11:01:09.078Z,74.22
2022-09-23T11:04:18.092Z,73.40
2022-09-23T11:07:00.571Z,74.67
2022-09-23T11:09:49.883Z,74.10
2022-09-23T11:12:41.672Z,74.12
2022-09-23T11:15:21.715Z,73.14
2022-09-23T11:18:18.152Z,73.57
2022-09-23T11:20:54.618Z,71.65
2022-09-23T11:23:27.343Z,68.69
2022-09-23T11:26:10.710Z,70.80
2022-09-23T11:28:42.508Z,71.44
2022-09-23T11:31:33.722Z,71.37
2022-09-23T11:34:21.415Z,71.57
2022-09-23T11:37:13.321Z,69.63
2022-09-23T11:39:52.526Z,71.59
2022-09-23T11:42:27.067Z,71.91
2022-09-23T11:45:03.867Z,70.83
2022-09-23T11:47:43.838Z,70.93
2022-09-23T11:50:18.931Z,70.89
2022-09-23T11:52:54.496Z,71.35
2022-09-23T11:55:28.807Z,71.61
2022-09-23T11:58:01.417Z,71.74
2022-09-23T12:00:39.648Z,71.43
2022-09-23T12:03:35.941Z,72.29
2022-09-23T12:06:34.587Z,70.24
2022-09-23T12:09:41.033Z,70.56
2022-09-23T12:12:26.851Z,69.94
2022-09-23T12:15:04.312Z,67.39
2022-09-23T12:17:49.713Z,66.70
2022-09-23T12:20:38.342Z,66.48
2022-09-23T12:23:28.234Z,65.96
2022-09-23T12:26:03.950Z,65.83
2022-09-23T12:28:36.083Z,64.30
2022-09-23T12:31:11.239Z,63.27
2022-09-23T12:33:38.693Z,66.48
2022-09-23T12:36:06.610Z,65.49
2022-09-23T12:38:56.901Z,63.21
2022-09-23T12:41:24.157Z,64.70
2022-09-23T12:44:00.142Z,64.38
2022-09-23T12:46:27.625Z,64.76
2022-09-23T12:49:00.570Z,64.72
2022-09-23T12:51:29.783Z,64.10
2022-09-23T12:54:14.277Z,64.69
2022-09-23T12:56:40.814Z,64.37
2022-09-23T12:59:10.319Z,64.48
2022-09-23T13:01:38.158Z,65.13
2022-09-23T13:04:23.877Z,63.52
2022-09-23T13:07:15.296Z,64.53
2022-09-23T13:09:46.633Z,64.34
2022-09-23T13:12:21.434Z,64.40
2022-09-23T13:14:52.509Z,63.89
2022-09-23T13:17:35.849Z,62.88
2022-09-23T13:20:06.444Z,63.59
2022-09-23T13:22:54.147Z,63.07
2022-09-23T13:25:33.686Z,63.84
2022-09-23T13:28:13.283Z,63.01
2022-09-23T13:30:49.191Z,62.81
2022-09-23T13:33:24.083Z,62.72
2022-09-23T13:35:52.844Z,63.22
2022-09-23T13:38:22.489Z,63.52
2022-09-23T13:40:49.558Z,63.69
2022-09-23T13:43:25.123Z,63.92
2022-09-23T13:45:51.896Z,63.66
2022-09-23T13:48:22.813Z,64.28
2022-09-23T13:50:53.270Z,63.70
2022-09-23T13:53:31.151Z,64.43
2022-09-23T13:56:15.702Z,64.48
2022-09-23T13:58:43.385Z,64.58
2022-09-23T14:01:34.310Z,64.56
2022-09-23T14:04:02.557Z,64.45
2022-09-23T14:06:37.145Z,63.86
2022-09-23T14:09:03.929Z,63.91
2022-09-23T14:11:33.511Z,64.38
2022-09-23T14:14:07.594Z,63.50
2022-09-23T14:16:38.310Z,62.29
2022-09-23T14:19:06.411Z,61.99
2022-09-23T14:21:38.305Z,62.52
2022-09-23T14:24:22.581Z,61.95
2022-09-23T14:26:55.707Z,61.96
2022-09-23T14:29:31.573Z,60.11
2022-09-23T14:32:05.984Z,60.08
2022-09-23T14:34:57.663Z,60.84
2022-09-23T14:37:44.849Z,60.04
2022-09-23T14:40:17.978Z,59.57
2022-09-23T14:43:07.883Z,59.84
2022-09-23T14:45:37.270Z,59.93
2022-09-23T14:48:10.559Z,58.80
2022-09-23T14:50:39.301Z,58.09
2022-09-23T14:53:35.169Z,59.27
2022-09-23T14:56:08.712Z,56.91
2022-09-23T14:58:43.026Z,56.81
2022-09-23T15:01:26.276Z,55.86
2022-09-23T15:03:54.382Z,56.99
2022-09-23T15:06:23.117Z,56.85
2022-09-23T15:08:51.687Z,56.98
2022-09-23T15:11:18.329Z,57.58
2022-09-23T15:13:51.256Z,57.30
2022-09-23T15:16:26.038Z,57.89
2022-09-23T15:18:59.007Z,57.71
2022-09-23T15:21:40.898Z,56.31
2022-09-23T15:24:37.738Z,54.76
2022-09-23T15:27:12.107Z,55.45
2022-09-23T15:29:38.874Z,56.57
2022-09-23T15:32:08.480Z,56.58
2022-09-23T15:34:38.774Z,56.58
2022-09-23T15:37:23.909Z,56.12
2022-09-23T15:39:50.947Z,55.88
2022-09-23T15:42:18.246Z,55.96
2022-09-23T15:44:44.824Z,55.87
2022-09-23T15:47:18.927Z,56.51
2022-09-23T15:49:48.959Z,55.95
2022-09-23T15:52:16.477Z,55.84
2022-09-23T15:54:43.816Z,55.55
2022-09-23T15:57:11.188Z,55.83
2022-09-23T15:59:38.134Z,56.30
2022-09-23T16:02:13.344Z,56.43
2022-09-23T16:04:39.910Z,57.17
2022-09-23T16:07:13.459Z,57.54
2022-09-23T16:09:40.031Z,57.05
2022-09-23T16:12:11.884Z,56.75
2022-09-23T16:14:38.421Z,56.93
2022-09-23T16:17:05.112Z,57.38
2022-09-23T16:19:34.116Z,57.54
2022-09-23T16:22:00.796Z,57.82
2022-09-23T16:24:28.264Z,57.84
2022-09-23T16:26:59.783Z,58.19
2022-09-23T16:29:27.577Z,57.66
2022-09-23T16:31:55.632Z,57.85
2022-09-23T16:34:22.319Z,57.83
2022-09-23T16:36:48.985Z,58.32
2022-09-23T16:39:15.837Z,57.98
2022-09-23T16:41:43.520Z,58.17
2022-09-23T16:44:12.519Z,59.25
2022-09-23T16:46:42.771Z,59.07
2022-09-23T16:49:12.022Z,59.30
2022-09-23T16:51:38.926Z,59.80
2022-09-23T16:54:11.788Z,60.05
2022-09-23T16:56:43.754Z,60.63
2022-09-23T16:59:11.661Z,60.56
2022-09-23T17:01:56.829Z,61.01
2022-09-23T17:04:23.360Z,61.36
2022-09-23T17:06:52.233Z,61.81
2022-09-23T17:09:21.171Z,62.22
2022-09-23T17:11:58.718Z,62.20
2022-09-23T17:14:25.246Z,62.15
2022-09-23T17:16:51.778Z,62.53
2022-09-23T17:19:18.346Z,62.52
2022-09-23T17:21:44.872Z,62.83
2022-09-23T17:24:11.515Z,62.92
2022-09-23T17:26:38.217Z,62.89
2022-09-23T17:29:05.652Z,62.81
2022-09-23T17:31:32.439Z,62.62
2022-09-23T17:33:59.158Z,62.56
2022-09-23T17:36:25.606Z,63.56
2022-09-23T17:38:55.000Z,63.29
2022-09-23T17:41:21.948Z,63.15
2022-09-23T17:43:53.851Z,63.20
2022-09-23T17:46:20.383Z,62.97
2022-09-23T17:48:47.253Z,63.63
2022-09-23T17:51:19.907Z,63.28
2022-09-23T17:53:48.314Z,63.55
2022-09-23T17:56:29.984Z,63.37
2022-09-23T17:59:00.387Z,63.31
2022-09-23T18:01:27.722Z,63.61
2022-09-23T18:03:59.649Z,63.32
2022-09-23T18:06:28.993Z,63.46
2022-09-23T18:08:58.384Z,63.03
2022-09-23T18:11:27.623Z,63.60
2022-09-23T18:13:59.599Z,63.50
2022-09-23T18:16:31.551Z,63.06
2022-09-23T18:19:00.583Z,63.12
2022-09-23T18:21:32.579Z,63.18
2022-09-23T18:24:28.273Z,63.24
2022-09-23T18:26:49.701Z,63.66
2022-09-23T18:29:16.649Z,63.31
2022-09-23T18:31:44.394Z,63.87
2022-09-23T18:34:13.102Z,63.32
2022-09-23T18:36:40.354Z,63.67
2022-09-23T18:39:07.333Z,63.47
2022-09-23T18:41:35.067Z,63.85
2022-09-23T18:44:01.871Z,63.77
2022-09-23T18:46:29.781Z,63.65
2022-09-23T18:49:15.498Z,63.78
2022-09-23T18:51:54.586Z,63.67
2022-09-23T18:54:23.016Z,63.71
2022-09-23T18:56:52.453Z,63.58
2022-09-23T18:59:20.838Z,64.15
2022-09-23T19:01:50.120Z,63.52
2022-09-23T19:04:19.278Z,64.18
2022-09-23T19:06:46.131Z,64.04
2022-09-23T19:09:14.036Z,63.91
2022-09-23T19:11:40.547Z,64.39
2022-09-23T19:14:11.188Z,64.65
2022-09-23T19:16:39.248Z,63.99
2022-09-23T19:19:06.344Z,64.82
2022-09-23T19:21:33.428Z,64.97
2022-09-23T19:24:05.203Z,64.55
2022-09-23T19:26:38.092Z,65.10
2022-09-23T19:29:06.172Z,64.25
2022-09-23T19:31:35.543Z,64.33
2022-09-23T19:34:06.047Z,64.42
2022-09-23T19:36:34.247Z,64.46
2022-09-23T19:39:06.888Z,64.02
2022-09-23T19:41:35.408Z,64.33
2022-09-23T19:44:03.301Z,64.81
2022-09-23T19:46:31.171Z,65.01
2022-09-23T19:48:58.412Z,65.22
2022-09-23T19:51:24.911Z,64.98
2022-09-23T19:53:51.461Z,65.02
2022-09-23T19:56:18.281Z,64.47
2022-09-23T19:58:53.299Z,64.63
2022-09-23T20:01:21.649Z,64.56
2022-09-23T20:03:48.766Z,64.63
2022-09-23T20:06:16.410Z,64.72
2022-09-23T20:08:44.316Z,64.60
2022-09-23T20:11:14.812Z,64.41
2022-09-23T20:13:43.921Z,64.72
2022-09-23T20:16:14.646Z,65.00
2022-09-23T20:18:42.267Z,65.04
2022-09-23T20:21:11.977Z,65.02
2022-09-23T20:23:38.543Z,65.52
2022-09-23T20:26:24.914Z,65.67
2022-09-23T20:28:51.580Z,65.49
2022-09-23T20:31:20.788Z,65.82
2022-09-23T20:33:57.384Z,65.80
2022-09-23T20:36:27.586Z,65.90
2022-09-23T20:39:01.960Z,65.30
2022-09-23T20:41:30.083Z,65.80
2022-09-23T20:43:59.580Z,66.11
2022-09-23T20:46:27.186Z,66.12
2022-09-23T20:48:56.913Z,66.38
2022-09-23T20:51:24.880Z,66.58
2022-09-23T20:53:53.029Z,66.67
2022-09-23T20:56:23.825Z,66.07
2022-09-23T20:58:50.868Z,66.51
2022-09-23T21:01:19.401Z,66.30
2022-09-23T21:03:48.381Z,66.26
2022-09-23T21:06:17.138Z,66.22
2022-09-23T21:08:44.657Z,66.24
2022-09-23T21:11:14.942Z,66.03
2022-09-23T21:13:49.131Z,66.92
2022-09-23T21:16:17.707Z,67.07
2022-09-23T21:18:45.559Z,67.32
2022-09-23T21:21:14.063Z,66.47
2022-09-23T21:23:42.552Z,67.19
2022-09-23T21:26:21.106Z,67.32
2022-09-23T21:28:50.167Z,66.97
2022-09-23T21:31:25.668Z,66.72
2022-09-23T21:33:56.838Z,67.33
2022-09-23T21:36:24.777Z,67.17
2022-09-23T21:38:52.117Z,66.89
2022-09-23T21:41:19.377Z,67.48
2022-09-23T21:43:45.953Z,67.64
2022-09-23T21:46:15.387Z,67.66
2022-09-23T21:48:42.696Z,66.78
2022-09-23T21:51:40.867Z,66.88
2022-09-23T21:54:15.688Z,67.38
2022-09-23T21:56:43.837Z,67.54
2022-09-23T21:59:10.852Z,66.94
2022-09-23T22:01:40.881Z,67.04
2022-09-23T22:04:14.712Z,67.67
2022-09-23T22:06:41.613Z,67.81
2022-09-23T22:09:12.609Z,67.76
2022-09-23T22:11:58.629Z,68.58
2022-09-23T22:14:26.301Z,67.96
2022-09-23T22:16:57.860Z,68.26
2022-09-23T22:19:26.778Z,68.01
2022-09-23T22:21:53.947Z,68.13
2022-09-23T22:24:20.405Z,68.66
2022-09-23T22:26:47.190Z,68.01
2022-09-23T22:29:34.051Z,69.11
2022-09-23T22:32:22.928Z,69.00
2022-09-23T22:34:51.559Z,69.06
2022-09-23T22:37:30.465Z,68.70
2022-09-23T22:39:57.412Z,69.09
2022-09-23T22:42:24.322Z,68.04
2022-09-23T22:44:51.277Z,68.70
2022-09-23T22:47:19.106Z,69.43
2022-09-23T22:49:46.331Z,69.22
2022-09-23T22:52:14.856Z,69.31
2022-09-23T22:54:41.489Z,69.19
2022-09-23T22:57:09.130Z,69.65
2022-09-23T22:59:37.321Z,69.11
2022-09-23T23:02:05.059Z,69.67
2022-09-23T23:04:32.117Z,69.49
2022-09-23T23:06:58.992Z,69.77
2022-09-23T23:09:25.766Z,69.40
2022-09-23T23:11:52.272Z,69.79
2022-09-23T23:14:18.954Z,69.13
2022-09-23T23:16:46.059Z,70.24
2022-09-23T23:19:16.503Z,69.78
2022-09-23T23:21:44.823Z,69.66
2022-09-23T23:24:17.375Z,69.43
2022-09-23T23:26:44.901Z,70.42
2022-09-23T23:29:13.377Z,69.53
2022-09-23T23:31:40.333Z,70.26
2022-09-23T23:34:10.690Z,70.20
2022-09-23T23:36:37.478Z,69.46
2022-09-23T23:39:04.542Z,69.63
2022-09-23T23:41:31.621Z,70.52
2022-09-23T23:43:59.636Z,70.07
2022-09-23T23:46:28.252Z,70.04
2022-09-23T23:48:55.884Z,71.00
2022-09-23T23:51:23.296Z,70.72
2022-09-23T23:53:50.032Z,71.52
2022-09-23T23:56:18.863Z,71.15
2022-09-23T23:58:45.859Z,71.77
